LOT4KH EPKT-EPWA
Flight info
| Callsign | LOT4KH |
|---|---|
| Flight time | 0h 31m |
| Altitude | 25000 |
| Route | KURON T709 KOTEK M866 LOGDA |
| Aircraft | B738/M-SDE2E3FGHIRWXY/LB1 |
Departure
| Time | 2026-05-01 14:10 |
|---|---|
| Airport | Katowice Wojciech Korfanty International Airport (EPKT) |
Arrival
| Time | 2026-05-01 14:42 |
|---|---|
| Airport | Warsaw Chopin Airport (EPWA) |
| Time | Latitude | Longitude | Altitude | Speed | Heading |
|---|---|---|---|---|---|
| 2026-05-01 13:30 | 50.47179 | 19.07212 | 988 ft | 0 kts | 180° |
| 2026-05-01 13:59 | 50.47187 | 19.07212 | 986 ft | 3 kts | 180° |
| 2026-05-01 14:00 | 50.47207 | 19.07212 | 993 ft | 3 kts | 180° |
| 2026-05-01 14:00 | 50.47212 | 19.07212 | 992 ft | 3 kts | 179° |
| 2026-05-01 14:00 | 50.47231 | 19.07203 | 989 ft | 3 kts | 128° |
| 2026-05-01 14:00 | 50.47237 | 19.07183 | 988 ft | 0 kts | 92° |
| 2026-05-01 14:01 | 50.47237 | 19.07185 | 988 ft | 0 kts | 95° |
| 2026-05-01 14:05 | 50.47236 | 19.07230 | 988 ft | 12 kts | 90° |
| 2026-05-01 14:05 | 50.47235 | 19.07389 | 992 ft | 16 kts | 90° |
| 2026-05-01 14:05 | 50.47236 | 19.07579 | 989 ft | 19 kts | 90° |
| 2026-05-01 14:06 | 50.47235 | 19.07794 | 992 ft | 21 kts | 91° |
| 2026-05-01 14:06 | 50.47234 | 19.08029 | 989 ft | 22 kts | 90° |
| 2026-05-01 14:06 | 50.47234 | 19.08267 | 990 ft | 22 kts | 90° |
| 2026-05-01 14:06 | 50.47233 | 19.08499 | 990 ft | 21 kts | 90° |
| 2026-05-01 14:07 | 50.47232 | 19.08724 | 990 ft | 20 kts | 90° |
| 2026-05-01 14:07 | 50.47232 | 19.08941 | 991 ft | 20 kts | 90° |
| 2026-05-01 14:07 | 50.47232 | 19.09187 | 988 ft | 25 kts | 90° |
| 2026-05-01 14:08 | 50.47231 | 19.09709 | 988 ft | 23 kts | 90° |
| 2026-05-01 14:08 | 50.47231 | 19.09940 | 993 ft | 17 kts | 90° |
| 2026-05-01 14:08 | 50.47271 | 19.10095 | 991 ft | 15 kts | 51° |
| 2026-05-01 14:08 | 50.47336 | 19.10224 | 987 ft | 15 kts | 52° |
| 2026-05-01 14:09 | 50.47398 | 19.10348 | 987 ft | 14 kts | 51° |
| 2026-05-01 14:09 | 50.47470 | 19.10443 | 992 ft | 14 kts | 13° |
| 2026-05-01 14:09 | 50.47561 | 19.10438 | 1000 ft | 13 kts | 335° |
| 2026-05-01 14:09 | 50.47596 | 19.10307 | 1002 ft | 18 kts | 271° |
| 2026-05-01 14:10 | 50.47597 | 19.09754 | 1000 ft | 91 kts | 270° |
| 2026-05-01 14:10 | 50.47601 | 19.08372 | 989 ft | 161 kts | 272° |
| 2026-05-01 14:10 | 50.47586 | 19.06501 | 1643 ft | 169 kts | 274° |
| 2026-05-01 14:10 | 50.47624 | 19.04690 | 2677 ft | 167 kts | 275° |
| 2026-05-01 14:11 | 50.47646 | 19.02788 | 3357 ft | 187 kts | 275° |
| 2026-05-01 14:11 | 50.47724 | 18.99084 | 4154 ft | 219 kts | 285° |
| 2026-05-01 14:11 | 50.48680 | 18.96171 | 4704 ft | 234 kts | 314° |
| 2026-05-01 14:12 | 50.49449 | 18.94970 | 4983 ft | 236 kts | 319° |
| 2026-05-01 14:12 | 50.50876 | 18.93798 | 5773 ft | 235 kts | 353° |
| 2026-05-01 14:12 | 50.52503 | 18.93854 | 6685 ft | 240 kts | 14° |
| 2026-05-01 14:12 | 50.53964 | 18.95217 | 7257 ft | 255 kts | 47° |
| 2026-05-01 14:13 | 50.54825 | 18.97672 | 8115 ft | 262 kts | 70° |
| 2026-05-01 14:13 | 50.55195 | 19.00506 | 9076 ft | 266 kts | 78° |
| 2026-05-01 14:13 | 50.55415 | 19.03406 | 9981 ft | 269 kts | 79° |
| 2026-05-01 14:13 | 50.55606 | 19.06355 | 10747 ft | 276 kts | 79° |
| 2026-05-01 14:14 | 50.55813 | 19.09487 | 10996 ft | 301 kts | 79° |
| 2026-05-01 14:14 | 50.56047 | 19.12900 | 11189 ft | 326 kts | 79° |
| 2026-05-01 14:14 | 50.56301 | 19.16523 | 11371 ft | 348 kts | 80° |
| 2026-05-01 14:14 | 50.56576 | 19.20397 | 11746 ft | 362 kts | 80° |
| 2026-05-01 14:15 | 50.56858 | 19.24372 | 12411 ft | 367 kts | 80° |
| 2026-05-01 14:15 | 50.57143 | 19.28369 | 13206 ft | 368 kts | 79° |
| 2026-05-01 14:15 | 50.57431 | 19.32380 | 14016 ft | 370 kts | 79° |
| 2026-05-01 14:15 | 50.57723 | 19.36418 | 14687 ft | 372 kts | 79° |
| 2026-05-01 14:16 | 50.58016 | 19.40475 | 15325 ft | 375 kts | 79° |
| 2026-05-01 14:16 | 50.58313 | 19.44577 | 15968 ft | 378 kts | 79° |
| 2026-05-01 14:16 | 50.58611 | 19.48712 | 16425 ft | 385 kts | 79° |
| 2026-05-01 14:16 | 50.58912 | 19.52910 | 16700 ft | 386 kts | 79° |
| 2026-05-01 14:17 | 50.59208 | 19.57078 | 17250 ft | 383 kts | 79° |
| 2026-05-01 14:17 | 50.59505 | 19.61270 | 17800 ft | 388 kts | 79° |
| 2026-05-01 14:17 | 50.59805 | 19.65509 | 18410 ft | 390 kts | 79° |
| 2026-05-01 14:17 | 50.60104 | 19.69765 | 18963 ft | 393 kts | 79° |
| 2026-05-01 14:18 | 50.60403 | 19.74055 | 19501 ft | 395 kts | 79° |
| 2026-05-01 14:18 | 50.60702 | 19.78362 | 20035 ft | 397 kts | 79° |
| 2026-05-01 14:18 | 50.61001 | 19.82692 | 20541 ft | 399 kts | 79° |
| 2026-05-01 14:18 | 50.61199 | 19.85573 | 20870 ft | 401 kts | 79° |
| 2026-05-01 14:19 | 50.61599 | 19.91429 | 21527 ft | 404 kts | 79° |
| 2026-05-01 14:19 | 50.61899 | 19.95841 | 21998 ft | 406 kts | 79° |
| 2026-05-01 14:19 | 50.62198 | 20.00271 | 22464 ft | 408 kts | 79° |
| 2026-05-01 14:19 | 50.62498 | 20.04727 | 22917 ft | 410 kts | 79° |
| 2026-05-01 14:20 | 50.62798 | 20.09210 | 23371 ft | 412 kts | 79° |
| 2026-05-01 14:20 | 50.63633 | 20.18153 | 24138 ft | 411 kts | 68° |
| 2026-05-01 14:20 | 50.64953 | 20.22112 | 24466 ft | 408 kts | 52° |
| 2026-05-01 14:21 | 50.66817 | 20.25474 | 24818 ft | 409 kts | 43° |
| 2026-05-01 14:21 | 50.69061 | 20.28163 | 24967 ft | 414 kts | 31° |
| 2026-05-01 14:21 | 50.71665 | 20.30121 | 25148 ft | 415 kts | 26° |
| 2026-05-01 14:22 | 50.76977 | 20.33676 | 25287 ft | 416 kts | 25° |
| 2026-05-01 14:22 | 50.79647 | 20.35453 | 25288 ft | 416 kts | 25° |
| 2026-05-01 14:22 | 50.82304 | 20.37241 | 25289 ft | 415 kts | 25° |
| 2026-05-01 14:22 | 50.84953 | 20.39045 | 25294 ft | 414 kts | 25° |
| 2026-05-01 14:23 | 50.87596 | 20.40860 | 25296 ft | 414 kts | 25° |
| 2026-05-01 14:23 | 50.90230 | 20.42678 | 25296 ft | 413 kts | 25° |
| 2026-05-01 14:23 | 50.92861 | 20.44501 | 25296 ft | 413 kts | 25° |
| 2026-05-01 14:23 | 50.95494 | 20.46329 | 25297 ft | 413 kts | 25° |
| 2026-05-01 14:24 | 50.98125 | 20.48158 | 25291 ft | 413 kts | 25° |
| 2026-05-01 14:24 | 51.00756 | 20.49989 | 25294 ft | 413 kts | 25° |
| 2026-05-01 14:24 | 51.03387 | 20.51821 | 25292 ft | 413 kts | 25° |
| 2026-05-01 14:24 | 51.06022 | 20.53659 | 25293 ft | 412 kts | 25° |
| 2026-05-01 14:25 | 51.08609 | 20.55463 | 25046 ft | 399 kts | 25° |
| 2026-05-01 14:25 | 51.11132 | 20.57224 | 24401 ft | 394 kts | 25° |
| 2026-05-01 14:25 | 51.13641 | 20.58981 | 23536 ft | 395 kts | 25° |
| 2026-05-01 14:25 | 51.16152 | 20.60742 | 22651 ft | 394 kts | 25° |
| 2026-05-01 14:26 | 51.18645 | 20.62491 | 21923 ft | 389 kts | 25° |
| 2026-05-01 14:26 | 51.23479 | 20.65887 | 21171 ft | 361 kts | 25° |
| 2026-05-01 14:26 | 51.25716 | 20.67458 | 20748 ft | 344 kts | 25° |
| 2026-05-01 14:27 | 51.27871 | 20.68976 | 20224 ft | 333 kts | 25° |
| 2026-05-01 14:27 | 51.29992 | 20.70326 | 19694 ft | 324 kts | 21° |
| 2026-05-01 14:27 | 51.32115 | 20.71467 | 19180 ft | 323 kts | 20° |
| 2026-05-01 14:28 | 51.36375 | 20.73663 | 18266 ft | 319 kts | 20° |
| 2026-05-01 14:28 | 51.38474 | 20.74762 | 17814 ft | 316 kts | 20° |
| 2026-05-01 14:28 | 51.40560 | 20.75868 | 17347 ft | 314 kts | 20° |
| 2026-05-01 14:28 | 51.42631 | 20.76974 | 16819 ft | 314 kts | 20° |
| 2026-05-01 14:29 | 51.44700 | 20.78084 | 16328 ft | 313 kts | 20° |
| 2026-05-01 14:29 | 51.46755 | 20.79188 | 15902 ft | 310 kts | 20° |
| 2026-05-01 14:30 | 51.52841 | 20.82465 | 14645 ft | 304 kts | 20° |
| 2026-05-01 14:30 | 51.54837 | 20.83542 | 14236 ft | 302 kts | 20° |
| 2026-05-01 14:30 | 51.56822 | 20.84614 | 13800 ft | 300 kts | 20° |
| 2026-05-01 14:31 | 51.60764 | 20.86746 | 12901 ft | 297 kts | 20° |
| 2026-05-01 14:31 | 51.62695 | 20.87791 | 12470 ft | 296 kts | 20° |
| 2026-05-01 14:31 | 51.64645 | 20.88848 | 12034 ft | 295 kts | 19° |
| 2026-05-01 14:31 | 51.66586 | 20.89901 | 11609 ft | 294 kts | 19° |
| 2026-05-01 14:32 | 51.68517 | 20.90949 | 11253 ft | 291 kts | 19° |
| 2026-05-01 14:32 | 51.70422 | 20.91956 | 11008 ft | 285 kts | 19° |
| 2026-05-01 14:32 | 51.72276 | 20.92922 | 10752 ft | 275 kts | 19° |
| 2026-05-01 14:32 | 51.74059 | 20.93852 | 10498 ft | 264 kts | 18° |
| 2026-05-01 14:33 | 51.75775 | 20.94750 | 10229 ft | 255 kts | 18° |
| 2026-05-01 14:33 | 51.77418 | 20.95750 | 9810 ft | 251 kts | 30° |
| 2026-05-01 14:33 | 51.78780 | 20.97485 | 9421 ft | 249 kts | 42° |
| 2026-05-01 14:33 | 51.79974 | 20.99492 | 9005 ft | 247 kts | 45° |
| 2026-05-01 14:34 | 51.81137 | 21.01537 | 8586 ft | 246 kts | 45° |
| 2026-05-01 14:34 | 51.82291 | 21.03565 | 8189 ft | 245 kts | 45° |
| 2026-05-01 14:34 | 51.83447 | 21.05586 | 7778 ft | 244 kts | 45° |
| 2026-05-01 14:34 | 51.84602 | 21.07587 | 7392 ft | 243 kts | 45° |
| 2026-05-01 14:35 | 51.85760 | 21.09586 | 7001 ft | 243 kts | 45° |
| 2026-05-01 14:35 | 51.86919 | 21.11584 | 6583 ft | 243 kts | 45° |
| 2026-05-01 14:35 | 51.88072 | 21.13572 | 6297 ft | 240 kts | 45° |
| 2026-05-01 14:35 | 51.89202 | 21.15521 | 6028 ft | 235 kts | 45° |
| 2026-05-01 14:36 | 51.90455 | 21.17137 | 5749 ft | 229 kts | 21° |
| 2026-05-01 14:36 | 51.92001 | 21.17321 | 5525 ft | 227 kts | 346° |
| 2026-05-01 14:36 | 51.93497 | 21.16476 | 5239 ft | 229 kts | 341° |
| 2026-05-01 14:36 | 51.94988 | 21.15514 | 4940 ft | 232 kts | 336° |
| 2026-05-01 14:37 | 51.96454 | 21.14359 | 4633 ft | 236 kts | 333° |
| 2026-05-01 14:37 | 51.97898 | 21.13109 | 4309 ft | 234 kts | 333° |
| 2026-05-01 14:37 | 51.99293 | 21.11880 | 3984 ft | 222 kts | 333° |
| 2026-05-01 14:37 | 52.00618 | 21.10711 | 3697 ft | 213 kts | 333° |
| 2026-05-01 14:38 | 52.01899 | 21.09589 | 3417 ft | 204 kts | 333° |
| 2026-05-01 14:38 | 52.03122 | 21.08519 | 3160 ft | 197 kts | 333° |
| 2026-05-01 14:38 | 52.04301 | 21.07477 | 2890 ft | 187 kts | 333° |
| 2026-05-01 14:38 | 52.05413 | 21.06499 | 2637 ft | 176 kts | 333° |
| 2026-05-01 14:39 | 52.06462 | 21.05575 | 2421 ft | 168 kts | 334° |
| 2026-05-01 14:39 | 52.07468 | 21.04699 | 2181 ft | 159 kts | 334° |
| 2026-05-01 14:39 | 52.08400 | 21.03875 | 2005 ft | 147 kts | 334° |
| 2026-05-01 14:39 | 52.09295 | 21.03080 | 1788 ft | 146 kts | 335° |
| 2026-05-01 14:40 | 52.10188 | 21.02312 | 1573 ft | 145 kts | 334° |
| 2026-05-01 14:40 | 52.11070 | 21.01538 | 1436 ft | 144 kts | 334° |
| 2026-05-01 14:40 | 52.11943 | 21.00766 | 1155 ft | 142 kts | 335° |
| 2026-05-01 14:40 | 52.12806 | 21.00015 | 949 ft | 140 kts | 335° |
| 2026-05-01 14:41 | 52.13671 | 20.99252 | 762 ft | 141 kts | 334° |
| 2026-05-01 14:41 | 52.14538 | 20.98501 | 578 ft | 144 kts | 335° |
| 2026-05-01 14:41 | 52.15418 | 20.97724 | 417 ft | 145 kts | 333° |
| 2026-05-01 14:41 | 52.16278 | 20.96974 | 334 ft | 124 kts | 331° |
| 2026-05-01 14:42 | 52.16854 | 20.96466 | 336 ft | 69 kts | 332° |
| 2026-05-01 14:42 | 52.17173 | 20.96248 | 335 ft | 37 kts | 354° |
| 2026-05-01 14:42 | 52.17334 | 20.96246 | 332 ft | 14 kts | 1° |
| 2026-05-01 14:42 | 52.17396 | 20.96298 | 331 ft | 10 kts | 57° |
| 2026-05-01 14:43 | 52.17432 | 20.96400 | 334 ft | 10 kts | 60° |
| 2026-05-01 14:43 | 52.17464 | 20.96500 | 334 ft | 10 kts | 63° |
| 2026-05-01 14:43 | 52.17446 | 20.96587 | 331 ft | 9 kts | 137° |
| 2026-05-01 14:43 | 52.17395 | 20.96634 | 334 ft | 8 kts | 152° |
| 2026-05-01 14:44 | 52.17345 | 20.96678 | 334 ft | 8 kts | 152° |
| 2026-05-01 14:44 | 52.17312 | 20.96674 | 335 ft | 3 kts | 218° |
| 2026-05-01 14:44 | 52.17299 | 20.96647 | 332 ft | 3 kts | 237° |
| 2026-05-01 14:45 | 52.17287 | 20.96614 | 335 ft | 3 kts | 240° |
| 2026-05-01 14:45 | 52.17284 | 20.96605 | 335 ft | 0 kts | 240° |